Time;durP1;ratioP1;P1;durP2;ratioP2;P2;SDS_P1;SDS_P2;PMS_P1;PMS_P2;Temp;Humidity;BMP_temperature;BMP_pressure;BME280_temperature;BME280_humidity;BME280_pressure;Samples;Min_cycle;Max_cycle;Signal;HPM_P1;HPM_P2
2022/07/22 00:01:04;;;;;;;13.40;6.85;;;;;;;;;;5007323;28;20022;-43
2022/07/22 00:03:30;;;;;;;9.18;6.30;;;;;;;;;;5004276;28;20107;-42
2022/07/22 00:05:55;;;;;;;13.20;6.50;;;;;;;;;;5003519;28;20833;-43
2022/07/22 00:08:21;;;;;;;10.15;6.63;;;;;;;;;;5005338;28;20179;-43
2022/07/22 00:10:47;;;;;;;12.57;6.80;;;;;;;;;;5006997;28;20055;-45
2022/07/22 00:13:12;;;;;;;11.60;6.72;;;;;;;;;;5006698;28;20057;-44
2022/07/22 00:15:38;;;;;;;11.75;6.65;;;;;;;;;;5005292;28;20048;-43
2022/07/22 00:18:04;;;;;;;18.98;7.03;;;;;;;;;;5003098;28;20037;-42
2022/07/22 00:20:30;;;;;;;17.33;7.45;;;;;;;;;;5002175;28;20030;-45
2022/07/22 00:22:56;;;;;;;17.40;6.63;;;;;;;;;;5005260;28;20081;-45
2022/07/22 00:25:21;;;;;;;9.82;6.78;;;;;;;;;;5007076;28;20113;-42
2022/07/22 00:27:47;;;;;;;10.50;6.22;;;;;;;;;;5002983;28;20100;-43
2022/07/22 00:30:13;;;;;;;13.45;6.90;;;;;;;;;;5003894;28;20378;-42
2022/07/22 00:32:38;;;;;;;11.15;6.72;;;;;;;;;;5006236;28;20030;-42
2022/07/22 00:35:04;;;;;;;18.02;7.28;;;;;;;;;;5000430;28;20494;-45
2022/07/22 00:37:30;;;;;;;11.75;6.75;;;;;;;;;;5003279;28;20109;-47
2022/07/22 00:39:56;;;;;;;9.25;6.43;;;;;;;;;;5003268;28;20072;-45
2022/07/22 00:42:22;;;;;;;12.60;6.50;;;;;;;;;;5003115;28;20459;-43
2022/07/22 00:44:47;;;;;;;11.90;7.00;;;;;;;;;;5004163;28;20181;-42
2022/07/22 00:47:13;;;;;;;9.13;6.30;;;;;;;;;;5003162;28;20029;-44
2022/07/22 00:49:39;;;;;;;15.57;7.03;;;;;;;;;;5004125;28;20038;-44
2022/07/22 00:52:05;;;;;;;15.23;6.70;;;;;;;;;;5003189;28;20026;-43
2022/07/22 00:54:31;;;;;;;24.05;6.95;;;;;;;;;;5003126;28;20030;-42
2022/07/22 00:56:57;;;;;;;11.00;6.78;;;;;;;;;;5004860;28;20100;-44
2022/07/22 00:59:24;;;;;;;11.50;6.35;;;;;;;;;;5005108;28;20467;-46
2022/07/22 01:01:50;;;;;;;19.58;7.45;;;;;;;;;;5007577;28;20045;-42
2022/07/22 01:04:36;;;;;;;11.68;6.85;;;;;;;;;;5002441;28;20038;-43
2022/07/22 01:07:21;;;;;;;17.08;7.25;;;;;;;;;;5006566;28;20053;-42
2022/07/22 01:10:07;;;;;;;17.60;7.43;;;;;;;;;;4999321;28;20038;-43
2022/07/22 01:12:53;;;;;;;13.43;7.03;;;;;;;;;;5006404;28;20120;-42
2022/07/22 01:15:18;;;;;;;13.98;6.70;;;;;;;;;;5007088;28;20120;-45
2022/07/22 01:17:44;;;;;;;15.25;6.97;;;;;;;;;;5001234;28;20036;-42
2022/07/22 01:20:10;;;;;;;11.40;6.05;;;;;;;;;;4998271;28;20382;-43
2022/07/22 01:22:36;;;;;;;14.82;7.63;;;;;;;;;;5005846;28;20041;-42
2022/07/22 01:25:02;;;;;;;13.57;6.85;;;;;;;;;;5007795;28;20018;-43
2022/07/22 01:27:29;;;;;;;15.48;6.97;;;;;;;;;;5002950;28;20375;-47
2022/07/22 01:29:55;;;;;;;11.50;6.85;;;;;;;;;;5008486;28;20076;-47
2022/07/22 01:32:20;;;;;;;12.15;6.88;;;;;;;;;;5007060;28;20026;-44
2022/07/22 01:34:46;;;;;;;13.85;7.57;;;;;;;;;;5010355;28;20033;-45
2022/07/22 01:37:12;;;;;;;10.70;6.72;;;;;;;;;;5010840;28;20037;-48
2022/07/22 01:39:38;;;;;;;13.05;6.95;;;;;;;;;;5005169;28;20104;-44
2022/07/22 01:42:03;;;;;;;17.27;7.10;;;;;;;;;;5006586;28;20478;-47
2022/07/22 01:44:30;;;;;;;14.48;6.75;;;;;;;;;;5005910;28;20040;-49
2022/07/22 01:46:58;;;;;;;12.27;7.18;;;;;;;;;;5007130;28;20029;-49
2022/07/22 01:49:25;;;;;;;13.40;7.45;;;;;;;;;;5008434;28;20076;-48
2022/07/22 01:51:50;;;;;;;8.98;6.65;;;;;;;;;;5010255;28;20556;-49
2022/07/22 01:54:16;;;;;;;15.88;7.40;;;;;;;;;;5009000;28;20030;-44
2022/07/22 01:56:42;;;;;;;12.07;7.10;;;;;;;;;;5005840;28;20050;-43
2022/07/22 01:59:07;;;;;;;13.27;7.57;;;;;;;;;;5008591;28;20076;-47
2022/07/22 02:01:33;;;;;;;8.13;6.40;;;;;;;;;;5005914;28;20497;-43
2022/07/22 02:03:59;;;;;;;12.35;7.28;;;;;;;;;;5007263;28;20390;-49
2022/07/22 02:06:24;;;;;;;12.50;7.53;;;;;;;;;;5005652;28;20056;-47
2022/07/22 02:08:50;;;;;;;10.43;6.65;;;;;;;;;;5007716;28;20084;-42
2022/07/22 02:11:17;;;;;;;9.30;6.75;;;;;;;;;;5006359;28;20040;-47
2022/07/22 02:13:43;;;;;;;15.43;7.22;;;;;;;;;;5008549;28;20101;-47
2022/07/22 02:16:08;;;;;;;14.95;6.78;;;;;;;;;;5005756;28;20105;-44
2022/07/22 02:18:34;;;;;;;18.80;7.80;;;;;;;;;;5009492;28;20044;-44
2022/07/22 02:21:00;;;;;;;10.90;7.28;;;;;;;;;;5006324;28;20288;-41
2022/07/22 02:23:25;;;;;;;12.60;6.50;;;;;;;;;;5008500;28;20057;-42
2022/07/22 02:25:51;;;;;;;12.25;7.40;;;;;;;;;;5008040;28;20030;-42
2022/07/22 02:28:17;;;;;;;12.57;6.95;;;;;;;;;;5006574;28;20029;-42
2022/07/22 02:30:42;;;;;;;11.82;7.25;;;;;;;;;;5001662;28;20022;-46
2022/07/22 02:33:08;;;;;;;14.43;6.60;;;;;;;;;;5005284;28;20057;-49
2022/07/22 02:35:34;;;;;;;12.10;7.32;;;;;;;;;;5006000;28;20026;-43
2022/07/22 02:38:00;;;;;;;11.50;7.30;;;;;;;;;;5008815;28;20036;-44
2022/07/22 02:40:25;;;;;;;12.00;7.32;;;;;;;;;;5007655;28;20041;-46
2022/07/22 02:42:51;;;;;;;12.98;7.30;;;;;;;;;;5005082;28;20040;-42
2022/07/22 02:45:17;;;;;;;14.60;7.43;;;;;;;;;;5008263;28;20426;-45
2022/07/22 02:47:48;;;;;;;13.77;6.70;;;;;;;;;;5007209;28;20026;-42
2022/07/22 02:50:14;;;;;;;15.07;6.82;;;;;;;;;;5002586;28;20084;-43
2022/07/22 02:52:39;;;;;;;10.93;6.90;;;;;;;;;;5007086;28;20037;-45
2022/07/22 02:55:06;;;;;;;14.80;7.35;;;;;;;;;;5005850;28;20399;-46
2022/07/22 02:57:31;;;;;;;10.82;7.43;;;;;;;;;;5008743;28;20037;-47
2022/07/22 02:59:57;;;;;;;16.05;7.07;;;;;;;;;;5007095;28;20026;-43
2022/07/22 03:02:23;;;;;;;11.88;7.00;;;;;;;;;;5006619;28;20029;-43
2022/07/22 03:04:49;;;;;;;11.57;6.68;;;;;;;;;;5001037;28;20503;-41
2022/07/22 03:07:14;;;;;;;10.82;7.32;;;;;;;;;;5007382;28;20033;-41
2022/07/22 03:09:40;;;;;;;16.05;6.97;;;;;;;;;;5008609;28;20036;-44
2022/07/22 03:12:06;;;;;;;10.65;7.47;;;;;;;;;;5004958;28;20030;-45
2022/07/22 03:14:32;;;;;;;13.20;7.32;;;;;;;;;;5007960;28;20018;-42
2022/07/22 03:16:57;;;;;;;13.52;7.18;;;;;;;;;;5004675;28;20155;-42
2022/07/22 03:19:23;;;;;;;14.13;7.15;;;;;;;;;;5007358;28;20163;-41
2022/07/22 03:21:48;;;;;;;12.50;7.32;;;;;;;;;;5007151;28;20536;-42
2022/07/22 03:24:14;;;;;;;9.55;7.47;;;;;;;;;;5004767;28;20026;-41
2022/07/22 03:26:40;;;;;;;12.55;7.38;;;;;;;;;;5008403;28;20116;-46
2022/07/22 03:29:06;;;;;;;11.02;6.80;;;;;;;;;;5009660;28;20026;-44
2022/07/22 03:31:31;;;;;;;14.75;7.50;;;;;;;;;;5004543;28;20394;-46
2022/07/22 03:33:57;;;;;;;12.05;6.95;;;;;;;;;;5007119;28;20059;-43
2022/07/22 03:36:23;;;;;;;20.30;7.82;;;;;;;;;;5006507;28;20492;-45
2022/07/22 03:38:49;;;;;;;11.05;6.88;;;;;;;;;;5005814;28;20121;-42
2022/07/22 03:41:14;;;;;;;10.82;6.22;;;;;;;;;;5005433;28;20121;-45
2022/07/22 03:43:40;;;;;;;14.63;6.78;;;;;;;;;;5007884;28;20034;-42
2022/07/22 03:46:05;;;;;;;12.13;6.72;;;;;;;;;;5007097;28;20092;-42
2022/07/22 03:48:31;;;;;;;11.95;6.57;;;;;;;;;;5004505;28;20041;-44
2022/07/22 03:50:57;;;;;;;10.57;7.00;;;;;;;;;;5000701;28;20506;-42
2022/07/22 03:53:22;;;;;;;13.60;7.93;;;;;;;;;;5004192;28;20368;-43
2022/07/22 03:55:48;;;;;;;12.07;6.70;;;;;;;;;;5005750;28;20450;-43
2022/07/22 03:58:16;;;;;;;13.02;6.40;;;;;;;;;;5009451;28;20532;-46
2022/07/22 04:00:42;;;;;;;10.15;7.30;;;;;;;;;;5002854;28;20080;-42
2022/07/22 04:03:08;;;;;;;15.23;7.18;;;;;;;;;;5004655;28;20516;-42
2022/07/22 04:05:33;;;;;;;11.75;7.00;;;;;;;;;;5004434;28;20092;-45
2022/07/22 04:07:59;;;;;;;11.35;7.00;;;;;;;;;;5004307;28;20108;-42
2022/07/22 04:10:25;;;;;;;12.30;6.60;;;;;;;;;;5004340;28;20105;-44
2022/07/22 04:12:50;;;;;;;12.40;6.75;;;;;;;;;;5005994;28;20526;-41
2022/07/22 04:15:36;;;;;;;8.15;6.70;;;;;;;;;;5005691;28;20055;-41
2022/07/22 04:18:21;;;;;;;10.20;6.90;;;;;;;;;;5004390;28;20032;-46
2022/07/22 04:21:07;;;;;;;9.02;6.40;;;;;;;;;;5004576;28;20044;-42
2022/07/22 04:23:53;;;;;;;9.70;6.75;;;;;;;;;;5006764;28;20034;-44
2022/07/22 04:26:38;;;;;;;13.63;6.20;;;;;;;;;;5005613;28;20034;-43
2022/07/22 04:29:24;;;;;;;8.63;6.40;;;;;;;;;;5000840;28;20089;-42
2022/07/22 04:32:09;;;;;;;11.25;6.88;;;;;;;;;;4998017;28;20534;-43
2022/07/22 04:34:43;;;;;;;9.18;6.47;;;;;;;;;;5006025;28;20407;-41
2022/07/22 04:37:10;;;;;;;11.88;7.00;;;;;;;;;;5004817;28;20041;-44
2022/07/22 04:39:35;;;;;;;10.43;6.35;;;;;;;;;;5007511;28;20113;-43
2022/07/22 04:42:01;;;;;;;12.90;6.03;;;;;;;;;;5001669;28;20109;-45
2022/07/22 04:44:27;;;;;;;16.10;7.10;;;;;;;;;;5004170;28;20468;-43
2022/07/22 04:46:52;;;;;;;12.70;6.80;;;;;;;;;;5005436;28;20030;-42
2022/07/22 04:49:18;;;;;;;9.43;6.68;;;;;;;;;;5004266;28;20089;-42
2022/07/22 04:51:44;;;;;;;15.68;6.72;;;;;;;;;;5005255;28;20072;-45
2022/07/22 04:54:09;;;;;;;12.48;6.30;;;;;;;;;;5002854;28;20533;-42
2022/07/22 04:56:35;;;;;;;9.82;6.43;;;;;;;;;;5004050;28;20050;-42
2022/07/22 04:59:00;;;;;;;18.45;7.32;;;;;;;;;;5006966;28;20021;-43
2022/07/22 05:01:26;;;;;;;12.70;6.55;;;;;;;;;;5003746;28;20129;-42
2022/07/22 05:03:52;;;;;;;18.45;6.18;;;;;;;;;;5005326;28;20037;-41
2022/07/22 05:06:18;;;;;;;11.40;6.80;;;;;;;;;;5011307;28;20039;-41
2022/07/22 05:08:44;;;;;;;14.60;6.70;;;;;;;;;;5010180;28;20442;-42
2022/07/22 05:11:09;;;;;;;9.68;6.63;;;;;;;;;;5010619;28;20030;-41
2022/07/22 05:13:35;;;;;;;15.57;6.80;;;;;;;;;;5006714;28;20076;-42
2022/07/22 05:16:05;;;;;;;14.48;6.72;;;;;;;;;;5007921;28;20029;-41
2022/07/22 05:18:31;;;;;;;13.70;6.65;;;;;;;;;;5009958;28;20052;-45
2022/07/22 05:20:57;;;;;;;10.35;6.25;;;;;;;;;;5007840;28;20394;-42
2022/07/22 05:23:23;;;;;;;13.57;6.10;;;;;;;;;;5005592;28;20049;-42
2022/07/22 05:25:48;;;;;;;10.48;6.30;;;;;;;;;;5006965;28;20129;-42
2022/07/22 05:28:14;;;;;;;6.95;6.05;;;;;;;;;;5005640;28;20490;-41
2022/07/22 05:30:40;;;;;;;11.65;6.25;;;;;;;;;;5008303;28;20080;-44
2022/07/22 05:33:06;;;;;;;9.57;6.38;;;;;;;;;;5007378;28;20034;-41
2022/07/22 05:35:31;;;;;;;11.23;6.10;;;;;;;;;;5010539;28;20759;-42
2022/07/22 05:37:57;;;;;;;15.50;6.40;;;;;;;;;;5007899;28;20029;-42
2022/07/22 05:40:23;;;;;;;8.88;6.00;;;;;;;;;;5009947;28;20026;-42
2022/07/22 05:42:49;;;;;;;13.00;6.05;;;;;;;;;;5003688;28;20076;-41
2022/07/22 05:45:14;;;;;;;12.30;6.55;;;;;;;;;;5013773;28;20033;-42
2022/07/22 05:47:40;;;;;;;12.88;6.80;;;;;;;;;;5011191;28;20032;-43
2022/07/22 05:50:06;;;;;;;12.45;6.55;;;;;;;;;;5009957;28;20383;-42
2022/07/22 05:52:36;;;;;;;8.95;6.05;;;;;;;;;;5005671;28;20030;-43
2022/07/22 05:55:02;;;;;;;13.60;6.20;;;;;;;;;;5007032;28;20042;-44
2022/07/22 05:57:29;;;;;;;10.07;6.22;;;;;;;;;;5010152;28;20033;-41
2022/07/22 05:59:54;;;;;;;15.80;6.10;;;;;;;;;;5006346;28;20026;-42
2022/07/22 06:02:20;;;;;;;18.77;6.43;;;;;;;;;;5009055;28;20049;-41
2022/07/22 06:04:46;;;;;;;12.77;7.03;;;;;;;;;;5007362;28;20034;-43
2022/07/22 06:07:12;;;;;;;11.13;6.20;;;;;;;;;;5008525;28;20029;-43
2022/07/22 06:09:37;;;;;;;13.18;6.65;;;;;;;;;;5010378;28;20040;-46
2022/07/22 06:12:03;;;;;;;8.77;5.97;;;;;;;;;;5005883;28;20037;-45
2022/07/22 06:14:29;;;;;;;15.27;6.38;;;;;;;;;;5006209;28;20065;-42
2022/07/22 06:16:55;;;;;;;10.98;6.00;;;;;;;;;;5012665;28;20027;-43
2022/07/22 06:19:21;;;;;;;12.32;6.22;;;;;;;;;;5010232;28;20092;-41
2022/07/22 06:21:47;;;;;;;13.20;6.47;;;;;;;;;;5006151;28;20029;-42
2022/07/22 06:24:12;;;;;;;9.63;6.25;;;;;;;;;;4997331;28;20064;-42
2022/07/22 06:26:38;;;;;;;15.98;6.13;;;;;;;;;;5007215;28;20025;-43
2022/07/22 06:29:04;;;;;;;8.80;6.22;;;;;;;;;;5005386;28;20122;-42
2022/07/22 06:31:30;;;;;;;12.38;6.30;;;;;;;;;;5005352;28;20032;-42
2022/07/22 06:33:55;;;;;;;16.08;6.03;;;;;;;;;;5005328;28;20072;-43
2022/07/22 06:36:21;;;;;;;17.30;6.55;;;;;;;;;;4998236;28;20053;-42
2022/07/22 06:38:47;;;;;;;16.52;6.40;;;;;;;;;;4999326;28;20034;-42
2022/07/22 06:41:13;;;;;;;14.48;5.93;;;;;;;;;;5008827;28;20092;-42
2022/07/22 06:43:39;;;;;;;8.13;6.00;;;;;;;;;;5000406;28;20164;-42
2022/07/22 06:46:05;;;;;;;19.50;6.30;;;;;;;;;;5002204;28;20165;-42
2022/07/22 06:48:31;;;;;;;27.25;7.68;;;;;;;;;;5009472;28;20105;-42
2022/07/22 06:50:57;;;;;;;18.25;7.05;;;;;;;;;;4998475;28;20176;-42
2022/07/22 06:53:22;;;;;;;14.57;6.70;;;;;;;;;;5002366;28;20037;-46
2022/07/22 06:55:48;;;;;;;22.65;6.63;;;;;;;;;;5010252;28;20560;-45
2022/07/22 06:58:14;;;;;;;13.43;6.65;;;;;;;;;;5012261;28;20037;-44
2022/07/22 07:00:39;;;;;;;19.77;6.68;;;;;;;;;;5006288;28;20394;-43
2022/07/22 07:03:05;;;;;;;16.58;6.88;;;;;;;;;;5010791;28;20041;-43
2022/07/22 07:05:31;;;;;;;12.48;6.63;;;;;;;;;;5005696;28;20470;-40
2022/07/22 07:07:57;;;;;;;17.50;7.38;;;;;;;;;;5008855;28;20475;-42
2022/07/22 07:10:22;;;;;;;14.07;6.53;;;;;;;;;;4998510;28;20049;-44
2022/07/22 07:12:48;;;;;;;12.45;6.50;;;;;;;;;;4987859;28;20057;-43
2022/07/22 07:15:14;;;;;;;12.02;6.57;;;;;;;;;;4994562;28;20459;-46
2022/07/22 07:17:39;;;;;;;14.75;6.60;;;;;;;;;;4987759;28;20029;-49
2022/07/22 07:20:06;;;;;;;21.30;7.00;;;;;;;;;;4993070;28;20100;-42
2022/07/22 07:22:32;;;;;;;10.65;6.47;;;;;;;;;;4991311;28;20030;-42
2022/07/22 07:25:04;;;;;;;15.45;6.80;;;;;;;;;;4995887;28;20026;-43
2022/07/22 07:27:29;;;;;;;;;;;;;;;;;;5004171;28;20030;-43
2022/07/22 07:29:55;;;;;;;20.30;6.80;;;;;;;;;;4996616;28;19936;-42
2022/07/22 07:32:20;;;;;;;10.48;6.90;;;;;;;;;;4996011;28;20034;-43
2022/07/22 07:34:46;;;;;;;15.02;6.32;;;;;;;;;;4988737;28;20038;-42
2022/07/22 07:37:12;;;;;;;15.18;7.15;;;;;;;;;;5000413;28;20838;-46
2022/07/22 07:39:38;;;;;;;12.63;7.43;;;;;;;;;;4998091;28;20029;-43
2022/07/22 07:42:03;;;;;;;13.88;7.05;;;;;;;;;;5007076;28;20030;-47
2022/07/22 07:44:29;;;;;;;32.13;7.43;;;;;;;;;;5008840;28;20429;-43
2022/07/22 07:46:55;;;;;;;13.63;6.95;;;;;;;;;;5008469;28;20029;-42
2022/07/22 07:49:21;;;;;;;18.15;6.97;;;;;;;;;;4996989;28;20037;-44
2022/07/22 07:51:46;;;;;;;18.45;6.72;;;;;;;;;;4997873;28;20034;-44
2022/07/22 07:54:12;;;;;;;17.55;7.45;;;;;;;;;;4998651;28;20038;-42
2022/07/22 07:56:38;;;;;;;17.33;6.97;;;;;;;;;;4991732;28;20506;-42
2022/07/22 07:59:04;;;;;;;14.18;6.60;;;;;;;;;;5002662;28;20109;-41
2022/07/22 08:01:30;;;;;;;16.02;7.25;;;;;;;;;;5008478;28;20029;-43
2022/07/22 08:03:56;;;;;;;14.18;7.45;;;;;;;;;;5006459;28;20041;-43
2022/07/22 08:06:22;;;;;;;15.90;7.22;;;;;;;;;;5009824;28;20029;-42
2022/07/22 08:08:48;;;;;;;15.82;7.55;;;;;;;;;;5011234;28;20108;-42
2022/07/22 08:11:13;;;;;;;13.73;7.15;;;;;;;;;;5013962;28;20084;-43
2022/07/22 08:13:39;;;;;;;10.85;6.55;;;;;;;;;;5005367;28;20029;-43
2022/07/22 08:16:05;;;;;;;21.75;7.82;;;;;;;;;;5007815;28;20029;-44
2022/07/22 08:18:31;;;;;;;18.08;7.18;;;;;;;;;;4998186;28;20501;-42
2022/07/22 08:20:57;;;;;;;15.10;7.10;;;;;;;;;;5004885;28;20072;-43
2022/07/22 08:23:23;;;;;;;19.30;7.70;;;;;;;;;;5010205;28;22449;-43
2022/07/22 08:25:49;;;;;;;20.20;6.93;;;;;;;;;;5008115;28;20034;-43
2022/07/22 08:28:14;;;;;;;17.13;6.70;;;;;;;;;;5006417;28;20033;-43
2022/07/22 08:30:40;;;;;;;14.52;6.78;;;;;;;;;;5003243;28;20471;-42
2022/07/22 08:33:07;;;;;;;16.92;7.07;;;;;;;;;;5001154;28;20037;-42
2022/07/22 08:35:33;;;;;;;18.23;6.95;;;;;;;;;;4997386;28;20099;-45
2022/07/22 08:37:59;;;;;;;14.35;6.93;;;;;;;;;;5008832;28;20026;-43
2022/07/22 08:40:25;;;;;;;13.82;6.88;;;;;;;;;;5007046;28;20061;-43
2022/07/22 08:42:51;;;;;;;17.55;6.82;;;;;;;;;;5013163;28;20041;-44
2022/07/22 08:45:19;;;;;;;13.55;6.82;;;;;;;;;;5014567;28;20029;-48
2022/07/22 08:47:50;;;;;;;17.17;6.82;;;;;;;;;;5010555;28;20022;-44
2022/07/22 08:50:16;;;;;;;19.42;7.00;;;;;;;;;;5006870;28;20030;-43
2022/07/22 08:52:42;;;;;;;12.30;6.90;;;;;;;;;;5004341;28;20045;-42
2022/07/22 08:55:08;;;;;;;13.07;6.60;;;;;;;;;;5010846;28;20042;-44
2022/07/22 08:57:37;;;;;;;19.65;7.00;;;;;;;;;;5006368;28;20042;-42
2022/07/22 09:00:10;;;;;;;12.15;6.50;;;;;;;;;;5008732;28;20084;-43
2022/07/22 09:02:39;;;;;;;18.08;6.90;;;;;;;;;;5004156;28;20121;-43
2022/07/22 09:05:07;;;;;;;10.80;6.68;;;;;;;;;;5006656;28;20065;-43
2022/07/22 09:07:41;;;;;;;16.08;6.80;;;;;;;;;;5013650;28;20025;-43
2022/07/22 09:10:14;;;;;;;13.48;6.50;;;;;;;;;;5009329;28;20034;-50
2022/07/22 09:13:01;;;;;;;12.68;6.57;;;;;;;;;;5011677;28;20037;-47
2022/07/22 09:15:29;;;;;;;12.77;6.18;;;;;;;;;;5004095;28;20091;-46
2022/07/22 09:17:56;;;;;;;9.75;5.90;;;;;;;;;;4992136;28;20034;-43
2022/07/22 09:20:22;;;;;;;11.40;6.97;;;;;;;;;;5005947;28;20057;-42
2022/07/22 09:22:49;;;;;;;18.00;8.18;;;;;;;;;;5009533;28;20079;-49
2022/07/22 09:25:21;;;;;;;16.10;6.80;;;;;;;;;;5011428;28;20091;-42
2022/07/22 09:27:48;;;;;;;14.48;6.57;;;;;;;;;;5010662;28;20043;-42
2022/07/22 09:30:19;;;;;;;15.02;6.57;;;;;;;;;;5009267;28;20029;-42
2022/07/22 09:32:45;;;;;;;13.35;7.75;;;;;;;;;;5003963;28;20359;-42
2022/07/22 09:35:11;;;;;;;13.20;6.97;;;;;;;;;;5013218;28;20060;-47
2022/07/22 09:37:47;;;;;;;15.63;6.75;;;;;;;;;;5007685;28;20045;-43
2022/07/22 09:40:23;;;;;;;12.27;6.90;;;;;;;;;;5007985;28;20030;-43
2022/07/22 09:42:52;;;;;;;12.15;7.03;;;;;;;;;;5010247;28;20037;-48
2022/07/22 09:45:20;;;;;;;22.80;7.43;;;;;;;;;;5002553;28;20061;-43
2022/07/22 09:47:46;;;;;;;12.60;7.68;;;;;;;;;;4998721;28;20524;-46
2022/07/22 09:50:20;;;;;;;15.60;7.18;;;;;;;;;;5012129;28;20045;-46
2022/07/22 09:52:47;;;;;;;14.95;6.82;;;;;;;;;;5009124;28;20475;-43
2022/07/22 09:55:15;;;;;;;16.70;6.85;;;;;;;;;;5010448;28;20137;-43
2022/07/22 09:57:41;;;;;;;14.07;6.45;;;;;;;;;;5010378;28;20163;-43
2022/07/22 10:00:08;;;;;;;10.52;6.35;;;;;;;;;;5009128;28;20133;-42
2022/07/22 10:02:39;;;;;;;11.98;6.35;;;;;;;;;;5009008;28;20034;-42
2022/07/22 10:05:05;;;;;;;16.30;6.95;;;;;;;;;;5012388;28;20026;-44
2022/07/22 10:07:31;;;;;;;17.48;7.00;;;;;;;;;;5014089;28;20030;-41
2022/07/22 10:09:58;;;;;;;12.50;6.50;;;;;;;;;;5007421;28;20566;-42
2022/07/22 10:12:23;;;;;;;16.60;6.40;;;;;;;;;;5009050;28;20037;-43
2022/07/22 10:14:50;;;;;;;20.65;6.95;;;;;;;;;;5011452;28;20501;-43
2022/07/22 10:17:16;;;;;;;20.58;6.20;;;;;;;;;;5008583;28;20036;-42
2022/07/22 10:19:42;;;;;;;14.95;6.78;;;;;;;;;;5005742;28;20029;-44
2022/07/22 10:22:44;;;;;;;15.00;6.38;;;;;;;;;;5008824;28;20036;-42
2022/07/22 10:25:12;;;;;;;19.00;6.22;;;;;;;;;;4987557;28;20038;-43
2022/07/22 10:27:59;;;;;;;11.18;6.22;;;;;;;;;;4981374;28;20094;-42
2022/07/22 10:30:33;;;;;;;15.60;5.95;;;;;;;;;;4985690;28;20054;-42
2022/07/22 10:33:19;;;;;;;9.93;5.75;;;;;;;;;;4985815;28;20046;-43
2022/07/22 10:36:02;;;;;;;12.68;5.78;;;;;;;;;;4990063;28;20114;-43
2022/07/22 10:38:30;;;;;;;11.45;5.65;;;;;;;;;;4980711;28;20592;-42
2022/07/22 10:41:02;;;;;;;12.43;5.93;;;;;;;;;;4976092;28;20081;-49
2022/07/22 10:43:30;;;;;;;15.20;6.07;;;;;;;;;;4981422;28;20030;-43
2022/07/22 10:45:58;;;;;;;13.85;5.40;;;;;;;;;;4977142;28;20065;-43
2022/07/22 10:48:32;;;;;;;8.07;5.40;;;;;;;;;;4973384;28;20037;-43
2022/07/22 10:51:21;;;;;;;8.98;5.20;;;;;;;;;;4979306;28;20034;-46
2022/07/22 10:53:57;;;;;;;9.73;5.22;;;;;;;;;;4980000;28;20507;-43
2022/07/22 10:56:37;;;;;;;8.40;5.85;;;;;;;;;;4981567;28;20133;-44
2022/07/22 10:59:10;;;;;;;11.25;5.28;;;;;;;;;;4989854;28;20061;-48
2022/07/22 11:01:38;;;;;;;8.93;5.10;;;;;;;;;;5003665;28;20215;-42
2022/07/22 11:04:15;;;;;;;9.95;5.57;;;;;;;;;;5005361;28;20497;-44
2022/07/22 11:06:43;;;;;;;10.60;5.50;;;;;;;;;;5006723;28;20050;-43
2022/07/22 11:09:11;;;;;;;15.15;5.97;;;;;;;;;;4996682;28;20022;-44
2022/07/22 11:11:41;;;;;;;11.45;5.82;;;;;;;;;;5006034;28;20037;-47
2022/07/22 11:14:33;;;;;;;11.00;5.20;;;;;;;;;;5003273;28;20034;-43
2022/07/22 11:17:00;;;;;;;;;;;;;;;;;;4998703;28;20406;-46
2022/07/22 11:19:28;;;;;;;5.45;4.80;;;;;;;;;;4996521;28;19922;-46
2022/07/22 11:21:56;;;;;;;13.10;5.05;;;;;;;;;;4994230;28;20025;-43
2022/07/22 11:24:23;;;;;;;7.95;4.97;;;;;;;;;;5007820;28;20040;-43
2022/07/22 11:26:51;;;;;;;8.05;5.20;;;;;;;;;;5006698;28;20033;-45
2022/07/22 11:29:28;;;;;;;12.65;4.85;;;;;;;;;;5009156;28;20406;-43
2022/07/22 11:31:56;;;;;;;11.00;5.65;;;;;;;;;;5007936;28;20056;-46
2022/07/22 11:34:22;;;;;;;10.18;5.40;;;;;;;;;;5009421;28;20045;-47
2022/07/22 11:36:49;;;;;;;7.38;5.47;;;;;;;;;;5000898;28;20032;-43
2022/07/22 11:39:19;;;;;;;14.15;5.22;;;;;;;;;;5005283;28;20030;-44
2022/07/22 11:41:45;;;;;;;12.50;5.70;;;;;;;;;;5002818;28;20052;-43
2022/07/22 11:44:11;;;;;;;25.48;6.20;;;;;;;;;;5006734;28;20363;-42
2022/07/22 11:46:40;;;;;;;8.65;5.72;;;;;;;;;;5007458;28;20376;-45
2022/07/22 11:49:07;;;;;;;17.58;6.10;;;;;;;;;;5004929;28;20045;-43
2022/07/22 11:51:34;;;;;;;14.13;5.90;;;;;;;;;;5005656;28;20029;-43
2022/07/22 11:54:00;;;;;;;16.92;5.35;;;;;;;;;;5006995;28;20091;-43
2022/07/22 11:56:27;;;;;;;12.80;5.93;;;;;;;;;;5003849;28;20046;-44
2022/07/22 11:58:54;;;;;;;6.32;5.05;;;;;;;;;;5006862;28;20075;-43
2022/07/22 12:01:22;;;;;;;7.13;5.68;;;;;;;;;;5004221;28;20068;-44
2022/07/22 12:03:51;;;;;;;13.23;5.50;;;;;;;;;;5003151;28;20038;-45
2022/07/22 12:06:18;;;;;;;9.48;5.38;;;;;;;;;;5003079;28;20382;-44
2022/07/22 12:09:05;;;;;;;7.38;5.40;;;;;;;;;;5002876;28;20041;-48
2022/07/22 12:11:30;;;;;;;7.70;5.63;;;;;;;;;;5005238;28;20029;-46
2022/07/22 12:14:24;;;;;;;9.90;5.82;;;;;;;;;;5008355;28;20427;-46
2022/07/22 12:17:10;;;;;;;9.35;5.80;;;;;;;;;;5001883;28;20402;-43
2022/07/22 12:19:36;;;;;;;12.00;5.50;;;;;;;;;;5004685;28;20037;-43
2022/07/22 12:22:13;;;;;;;11.10;6.00;;;;;;;;;;5007273;28;20026;-43
2022/07/22 12:24:40;;;;;;;12.30;6.13;;;;;;;;;;5005934;28;20045;-43
2022/07/22 12:27:08;;;;;;;11.25;6.15;;;;;;;;;;5003642;28;20038;-43
2022/07/22 12:29:36;;;;;;;20.88;6.45;;;;;;;;;;5004419;28;20026;-44
2022/07/22 12:32:04;;;;;;;12.75;6.53;;;;;;;;;;5004828;28;20033;-43
2022/07/22 12:34:40;;;;;;;12.32;6.28;;;;;;;;;;5002922;28;20077;-45
2022/07/22 12:37:15;;;;;;;14.32;6.47;;;;;;;;;;5006506;28;20033;-44
2022/07/22 12:39:56;;;;;;;13.55;6.15;;;;;;;;;;5007443;28;20128;-43
2022/07/22 12:42:24;;;;;;;14.80;7.20;;;;;;;;;;5004741;28;20060;-44
2022/07/22 12:45:08;;;;;;;20.35;6.93;;;;;;;;;;5005122;28;20026;-44
2022/07/22 12:47:44;;;;;;;17.50;6.43;;;;;;;;;;5005509;28;20029;-44
2022/07/22 12:50:17;;;;;;;14.63;6.78;;;;;;;;;;5004342;28;20040;-43
2022/07/22 12:52:43;;;;;;;13.07;6.57;;;;;;;;;;5006307;28;20030;-44
2022/07/22 12:55:08;;;;;;;11.63;6.60;;;;;;;;;;5003909;28;20053;-43
2022/07/22 12:57:34;;;;;;;12.57;6.22;;;;;;;;;;5009666;28;20521;-43
2022/07/22 13:00:00;;;;;;;16.63;6.93;;;;;;;;;;5007390;28;20545;-46
2022/07/22 13:02:26;;;;;;;25.52;7.18;;;;;;;;;;5000508;28;20254;-43
2022/07/22 13:04:51;;;;;;;14.50;6.78;;;;;;;;;;5000436;28;20022;-43
2022/07/22 13:07:17;;;;;;;25.70;7.03;;;;;;;;;;5001433;28;20060;-43
2022/07/22 13:09:43;;;;;;;17.77;6.80;;;;;;;;;;4997044;28;20506;-46
2022/07/22 13:12:09;;;;;;;11.32;6.30;;;;;;;;;;5002737;28;20030;-44
2022/07/22 13:14:34;;;;;;;13.38;6.28;;;;;;;;;;5007096;28;20052;-46
2022/07/22 13:17:00;;;;;;;17.17;6.50;;;;;;;;;;5006156;28;20529;-46
2022/07/22 13:19:26;;;;;;;21.70;6.53;;;;;;;;;;5005672;28;20363;-43
2022/07/22 13:21:51;;;;;;;15.35;6.53;;;;;;;;;;5004086;28;20121;-43
2022/07/22 13:24:17;;;;;;;21.55;6.35;;;;;;;;;;5008543;28;20069;-45
2022/07/22 13:26:43;;;;;;;9.57;5.80;;;;;;;;;;5004324;28;20360;-45
2022/07/22 13:29:09;;;;;;;13.00;6.05;;;;;;;;;;5002001;28;20033;-44
2022/07/22 13:31:35;;;;;;;11.30;6.35;;;;;;;;;;5007433;28;20029;-43
2022/07/22 13:34:01;;;;;;;13.77;6.38;;;;;;;;;;5009704;28;20485;-44
2022/07/22 13:36:28;;;;;;;13.48;6.32;;;;;;;;;;5009806;28;20030;-43
2022/07/22 13:38:54;;;;;;;20.92;6.78;;;;;;;;;;5009502;28;20030;-43
2022/07/22 13:41:20;;;;;;;11.65;5.65;;;;;;;;;;5009898;28;20080;-43
2022/07/22 13:43:46;;;;;;;11.38;5.82;;;;;;;;;;5008839;28;20061;-46
2022/07/22 13:46:12;;;;;;;9.88;5.28;;;;;;;;;;5006327;28;20022;-41
2022/07/22 13:48:37;;;;;;;10.43;5.57;;;;;;;;;;5010222;28;20384;-43
2022/07/22 13:51:04;;;;;;;21.77;6.10;;;;;;;;;;5009264;28;20096;-43
2022/07/22 13:53:30;;;;;;;10.57;5.50;;;;;;;;;;5005301;28;20399;-49
2022/07/22 13:55:56;;;;;;;13.75;5.70;;;;;;;;;;5008713;28;20038;-44
2022/07/22 13:58:22;;;;;;;14.60;6.47;;;;;;;;;;5000428;28;20549;-43
2022/07/22 14:00:48;;;;;;;11.57;6.00;;;;;;;;;;5012313;28;20080;-45
2022/07/22 14:03:13;;;;;;;10.52;5.13;;;;;;;;;;5006495;28;20107;-46
2022/07/22 14:05:39;;;;;;;25.60;5.65;;;;;;;;;;5008443;28;20120;-43
2022/07/22 14:08:05;;;;;;;12.77;5.20;;;;;;;;;;5010435;28;20437;-43
2022/07/22 14:10:31;;;;;;;11.25;5.07;;;;;;;;;;5010889;28;20057;-43
2022/07/22 14:12:56;;;;;;;12.00;5.07;;;;;;;;;;5011378;28;20026;-43
2022/07/22 14:15:22;;;;;;;13.48;5.63;;;;;;;;;;5008347;28;20427;-43
2022/07/22 14:17:48;;;;;;;9.77;5.40;;;;;;;;;;5005011;28;20073;-47
2022/07/22 14:20:13;;;;;;;16.58;5.60;;;;;;;;;;5008046;28;20037;-46
2022/07/22 14:22:39;;;;;;;13.30;5.22;;;;;;;;;;5008192;28;20045;-46
2022/07/22 14:25:05;;;;;;;14.13;4.88;;;;;;;;;;5008227;28;20030;-43
2022/07/22 14:27:31;;;;;;;12.52;6.13;;;;;;;;;;5009614;28;20041;-44
2022/07/22 14:29:56;;;;;;;18.50;6.07;;;;;;;;;;5007980;28;20038;-43
2022/07/22 14:32:22;;;;;;;16.67;5.63;;;;;;;;;;5004114;28;20063;-44
2022/07/22 14:34:48;;;;;;;8.07;5.22;;;;;;;;;;5010832;28;20025;-46
2022/07/22 14:37:13;;;;;;;11.07;5.40;;;;;;;;;;5010479;28;20030;-46